KOCW/OCW METAR and TAF weather

Enter ICAO airport designator
Station Type Date Time Source
KOCW METAR 2019/05/25 15:00 UTC NOAA

KOCW 251500Z AUTO 19005KT 10SM CLR 29/15 A3018 RMK AO2 T02870145


Station Type Date Time Source
KOCW Decoded METAR 2019/05/25 15:00 UTC NOAA

Washington, Warren Field Airport, NC, United States (KOCW) 35-34-14N 077-02-59W
May 25, 2019 - 11:00 AM EDT / 2019.05.25 1500 UTC
Wind: from the S (190 degrees) at 6 MPH (5 KT):0
Visibility: 10 mile(s):0
Sky conditions: clear
Temperature: 83.7 F (28.7 C)
Dew Point: 58.1 F (14.5 C)
Relative Humidity: 41%
Pressure (altimeter): 30.18 in. Hg (1022 hPa)
ob: KOCW 251500Z AUTO 19005KT 10SM CLR 29/15 A3018 RMK AO2 T02870145
cycle: 15

Station Type Date Time Source
KOCW TAF UTC NOAA

Error!

Example: see airport list